sensor_id;sensor_type;location;lat;lon;timestamp;P1;durP1;ratioP1;P2;durP2;ratioP2
64643;SDS011;51056;50.330;7.914;2023-02-12T00:02:29;21.73;;;15.57;;
64643;SDS011;51056;50.330;7.914;2023-02-12T00:05:32;20.27;;;15.38;;
64643;SDS011;51056;50.330;7.914;2023-02-12T00:08:39;21.75;;;16.00;;
64643;SDS011;51056;50.330;7.914;2023-02-12T00:11:42;20.90;;;15.35;;
64643;SDS011;51056;50.330;7.914;2023-02-12T00:14:45;19.83;;;15.88;;
64643;SDS011;51056;50.330;7.914;2023-02-12T00:17:49;20.52;;;15.48;;
64643;SDS011;51056;50.330;7.914;2023-02-12T00:20:52;19.17;;;15.07;;
64643;SDS011;51056;50.330;7.914;2023-02-12T00:26:59;19.92;;;14.00;;
64643;SDS011;51056;50.330;7.914;2023-02-12T00:30:02;20.10;;;15.90;;
64643;SDS011;51056;50.330;7.914;2023-02-12T00:33:06;18.17;;;14.70;;
64643;SDS011;51056;50.330;7.914;2023-02-12T00:36:12;18.65;;;14.68;;
64643;SDS011;51056;50.330;7.914;2023-02-12T00:39:18;19.67;;;14.45;;
64643;SDS011;51056;50.330;7.914;2023-02-12T00:42:21;17.30;;;13.10;;
64643;SDS011;51056;50.330;7.914;2023-02-12T00:48:28;28.17;;;21.10;;
64643;SDS011;51056;50.330;7.914;2023-02-12T00:51:31;27.95;;;20.85;;
64643;SDS011;51056;50.330;7.914;2023-02-12T00:54:34;63.83;;;48.40;;
64643;SDS011;51056;50.330;7.914;2023-02-12T00:57:38;35.85;;;27.15;;
64643;SDS011;51056;50.330;7.914;2023-02-12T01:00:42;34.78;;;24.27;;
64643;SDS011;51056;50.330;7.914;2023-02-12T01:03:46;30.23;;;21.73;;
64643;SDS011;51056;50.330;7.914;2023-02-12T01:06:49;27.17;;;20.25;;
64643;SDS011;51056;50.330;7.914;2023-02-12T01:12:56;27.42;;;16.35;;
64643;SDS011;51056;50.330;7.914;2023-02-12T01:16:03;20.67;;;16.73;;
64643;SDS011;51056;50.330;7.914;2023-02-12T01:19:09;22.67;;;16.98;;
64643;SDS011;51056;50.330;7.914;2023-02-12T01:22:14;25.13;;;17.30;;
64643;SDS011;51056;50.330;7.914;2023-02-12T01:25:19;21.70;;;17.48;;
64643;SDS011;51056;50.330;7.914;2023-02-12T01:31:28;23.90;;;16.15;;
64643;SDS011;51056;50.330;7.914;2023-02-12T01:34:33;18.50;;;14.85;;
64643;SDS011;51056;50.330;7.914;2023-02-12T01:40:39;25.63;;;16.92;;
64643;SDS011;51056;50.330;7.914;2023-02-12T01:43:43;26.23;;;18.90;;
64643;SDS011;51056;50.330;7.914;2023-02-12T01:46:54;20.55;;;16.92;;
64643;SDS011;51056;50.330;7.914;2023-02-12T01:49:58;21.23;;;16.40;;
64643;SDS011;51056;50.330;7.914;2023-02-12T01:53:02;25.40;;;17.83;;
64643;SDS011;51056;50.330;7.914;2023-02-12T01:56:06;24.38;;;15.57;;
64643;SDS011;51056;50.330;7.914;2023-02-12T01:59:11;20.20;;;15.77;;
64643;SDS011;51056;50.330;7.914;2023-02-12T02:02:15;21.35;;;16.60;;
64643;SDS011;51056;50.330;7.914;2023-02-12T02:05:23;21.48;;;16.67;;
64643;SDS011;51056;50.330;7.914;2023-02-12T02:08:41;26.13;;;16.45;;
64643;SDS011;51056;50.330;7.914;2023-02-12T02:11:46;23.23;;;16.75;;
64643;SDS011;51056;50.330;7.914;2023-02-12T02:15:08;22.33;;;16.85;;
64643;SDS011;51056;50.330;7.914;2023-02-12T02:35:23;19.77;;;14.50;;
64643;SDS011;51056;50.330;7.914;2023-02-12T02:38:37;18.63;;;14.38;;
64643;SDS011;51056;50.330;7.914;2023-02-12T02:41:54;21.52;;;15.77;;
64643;SDS011;51056;50.330;7.914;2023-02-12T02:45:12;21.90;;;17.17;;
64643;SDS011;51056;50.330;7.914;2023-02-12T02:48:34;22.65;;;15.60;;
64643;SDS011;51056;50.330;7.914;2023-02-12T02:51:41;20.27;;;14.68;;
64643;SDS011;51056;50.330;7.914;2023-02-12T02:54:48;18.40;;;15.07;;
64643;SDS011;51056;50.330;7.914;2023-02-12T02:57:56;19.20;;;14.13;;
64643;SDS011;51056;50.330;7.914;2023-02-12T03:04:30;20.00;;;14.90;;
64643;SDS011;51056;50.330;7.914;2023-02-12T03:07:40;18.67;;;14.00;;
64643;SDS011;51056;50.330;7.914;2023-02-12T03:10:47;18.48;;;14.70;;
64643;SDS011;51056;50.330;7.914;2023-02-12T03:14:14;17.95;;;13.55;;
64643;SDS011;51056;50.330;7.914;2023-02-12T03:17:29;18.77;;;14.40;;
64643;SDS011;51056;50.330;7.914;2023-02-12T03:20:40;20.45;;;14.32;;
64643;SDS011;51056;50.330;7.914;2023-02-12T03:24:10;18.83;;;15.20;;
64643;SDS011;51056;50.330;7.914;2023-02-12T03:27:32;22.63;;;15.43;;
64643;SDS011;51056;50.330;7.914;2023-02-12T03:30:55;22.33;;;14.55;;
64643;SDS011;51056;50.330;7.914;2023-02-12T03:44:20;21.00;;;15.23;;
64643;SDS011;51056;50.330;7.914;2023-02-12T03:51:20;19.80;;;14.65;;
64643;SDS011;51056;50.330;7.914;2023-02-12T03:54:45;21.45;;;15.05;;
64643;SDS011;51056;50.330;7.914;2023-02-12T04:00:58;19.95;;;13.75;;
64643;SDS011;51056;50.330;7.914;2023-02-12T04:04:04;18.65;;;14.43;;
64643;SDS011;51056;50.330;7.914;2023-02-12T04:07:09;21.02;;;15.05;;
64643;SDS011;51056;50.330;7.914;2023-02-12T04:10:14;18.02;;;14.68;;
64643;SDS011;51056;50.330;7.914;2023-02-12T04:16:46;21.05;;;16.00;;
64643;SDS011;51056;50.330;7.914;2023-02-12T04:23:18;15.68;;;12.98;;
64643;SDS011;51056;50.330;7.914;2023-02-12T04:33:02;17.60;;;12.77;;
64643;SDS011;51056;50.330;7.914;2023-02-12T04:36:11;16.13;;;13.02;;
64643;SDS011;51056;50.330;7.914;2023-02-12T04:39:19;16.33;;;13.38;;
64643;SDS011;51056;50.330;7.914;2023-02-12T04:42:25;20.23;;;12.50;;
64643;SDS011;51056;50.330;7.914;2023-02-12T04:45:29;16.55;;;12.55;;
64643;SDS011;51056;50.330;7.914;2023-02-12T04:48:36;20.55;;;14.10;;
64643;SDS011;51056;50.330;7.914;2023-02-12T04:51:52;17.27;;;14.23;;
64643;SDS011;51056;50.330;7.914;2023-02-12T04:54:55;18.50;;;14.02;;
64643;SDS011;51056;50.330;7.914;2023-02-12T04:57:58;20.65;;;14.05;;
64643;SDS011;51056;50.330;7.914;2023-02-12T05:04:05;16.37;;;12.53;;
64643;SDS011;51056;50.330;7.914;2023-02-12T05:07:10;16.58;;;13.32;;
64643;SDS011;51056;50.330;7.914;2023-02-12T05:10:14;16.13;;;13.00;;
64643;SDS011;51056;50.330;7.914;2023-02-12T05:13:17;15.15;;;12.50;;
64643;SDS011;51056;50.330;7.914;2023-02-12T05:19:24;20.08;;;14.63;;
64643;SDS011;51056;50.330;7.914;2023-02-12T05:22:27;17.33;;;13.13;;
64643;SDS011;51056;50.330;7.914;2023-02-12T05:28:33;16.92;;;13.32;;
64643;SDS011;51056;50.330;7.914;2023-02-12T05:31:37;23.50;;;14.43;;
64643;SDS011;51056;50.330;7.914;2023-02-12T05:34:40;20.35;;;13.77;;
64643;SDS011;51056;50.330;7.914;2023-02-12T05:37:43;18.88;;;13.98;;
64643;SDS011;51056;50.330;7.914;2023-02-12T05:40:47;16.17;;;13.18;;
64643;SDS011;51056;50.330;7.914;2023-02-12T05:46:53;19.30;;;13.25;;
64643;SDS011;51056;50.330;7.914;2023-02-12T05:49:57;19.98;;;12.88;;
64643;SDS011;51056;50.330;7.914;2023-02-12T05:53:00;21.90;;;13.93;;
64643;SDS011;51056;50.330;7.914;2023-02-12T05:56:20;19.40;;;13.93;;
64643;SDS011;51056;50.330;7.914;2023-02-12T05:59:28;17.17;;;13.30;;
64643;SDS011;51056;50.330;7.914;2023-02-12T06:02:34;17.88;;;13.93;;
64643;SDS011;51056;50.330;7.914;2023-02-12T06:05:38;18.05;;;12.35;;
64643;SDS011;51056;50.330;7.914;2023-02-12T06:08:41;19.55;;;13.50;;
64643;SDS011;51056;50.330;7.914;2023-02-12T06:11:44;15.55;;;12.90;;
64643;SDS011;51056;50.330;7.914;2023-02-12T06:14:48;15.80;;;13.05;;
64643;SDS011;51056;50.330;7.914;2023-02-12T06:17:51;18.63;;;12.13;;
64643;SDS011;51056;50.330;7.914;2023-02-12T06:20:55;18.13;;;13.23;;
64643;SDS011;51056;50.330;7.914;2023-02-12T06:24:08;21.52;;;13.70;;
64643;SDS011;51056;50.330;7.914;2023-02-12T06:27:13;19.67;;;12.20;;
64643;SDS011;51056;50.330;7.914;2023-02-12T06:30:16;17.98;;;14.20;;
64643;SDS011;51056;50.330;7.914;2023-02-12T06:33:19;17.90;;;13.23;;
64643;SDS011;51056;50.330;7.914;2023-02-12T06:36:22;18.50;;;12.30;;
64643;SDS011;51056;50.330;7.914;2023-02-12T06:39:26;19.33;;;12.77;;
64643;SDS011;51056;50.330;7.914;2023-02-12T06:42:29;18.73;;;13.52;;
64643;SDS011;51056;50.330;7.914;2023-02-12T06:45:32;18.90;;;14.02;;
64643;SDS011;51056;50.330;7.914;2023-02-12T06:48:36;17.63;;;12.95;;
64643;SDS011;51056;50.330;7.914;2023-02-12T06:54:43;15.85;;;12.85;;
64643;SDS011;51056;50.330;7.914;2023-02-12T06:57:46;16.98;;;13.50;;
64643;SDS011;51056;50.330;7.914;2023-02-12T07:04:02;19.67;;;13.25;;
64643;SDS011;51056;50.330;7.914;2023-02-12T07:07:06;19.92;;;14.95;;
64643;SDS011;51056;50.330;7.914;2023-02-12T07:10:09;23.70;;;16.13;;
64643;SDS011;51056;50.330;7.914;2023-02-12T07:13:12;16.35;;;12.38;;
64643;SDS011;51056;50.330;7.914;2023-02-12T07:16:16;19.80;;;13.40;;
64643;SDS011;51056;50.330;7.914;2023-02-12T07:19:20;29.80;;;19.70;;
64643;SDS011;51056;50.330;7.914;2023-02-12T07:22:24;29.55;;;21.38;;
64643;SDS011;51056;50.330;7.914;2023-02-12T07:25:28;22.52;;;17.70;;
64643;SDS011;51056;50.330;7.914;2023-02-12T07:31:37;19.08;;;14.98;;
64643;SDS011;51056;50.330;7.914;2023-02-12T07:34:40;23.02;;;17.10;;
64643;SDS011;51056;50.330;7.914;2023-02-12T07:37:43;18.17;;;14.25;;
64643;SDS011;51056;50.330;7.914;2023-02-12T07:40:47;21.85;;;15.20;;
64643;SDS011;51056;50.330;7.914;2023-02-12T07:43:55;25.15;;;15.32;;
64643;SDS011;51056;50.330;7.914;2023-02-12T07:47:28;19.95;;;15.68;;
64643;SDS011;51056;50.330;7.914;2023-02-12T07:50:31;19.02;;;15.43;;
64643;SDS011;51056;50.330;7.914;2023-02-12T07:53:36;23.90;;;18.27;;
64643;SDS011;51056;50.330;7.914;2023-02-12T07:56:40;20.80;;;17.65;;
64643;SDS011;51056;50.330;7.914;2023-02-12T07:59:45;18.67;;;14.75;;
64643;SDS011;51056;50.330;7.914;2023-02-12T08:05:54;21.50;;;16.02;;
64643;SDS011;51056;50.330;7.914;2023-02-12T08:08:59;21.73;;;17.42;;
64643;SDS011;51056;50.330;7.914;2023-02-12T08:12:04;24.60;;;18.83;;
64643;SDS011;51056;50.330;7.914;2023-02-12T08:15:07;24.50;;;17.13;;
64643;SDS011;51056;50.330;7.914;2023-02-12T08:18:12;18.92;;;15.23;;
64643;SDS011;51056;50.330;7.914;2023-02-12T08:21:19;21.65;;;15.43;;
64643;SDS011;51056;50.330;7.914;2023-02-12T08:24:25;18.77;;;15.15;;
64643;SDS011;51056;50.330;7.914;2023-02-12T08:27:29;22.67;;;18.55;;
64643;SDS011;51056;50.330;7.914;2023-02-12T08:30:33;21.55;;;17.75;;
64643;SDS011;51056;50.330;7.914;2023-02-12T08:33:37;24.65;;;18.63;;
64643;SDS011;51056;50.330;7.914;2023-02-12T08:36:40;23.17;;;18.83;;
64643;SDS011;51056;50.330;7.914;2023-02-12T08:42:47;24.60;;;18.70;;
64643;SDS011;51056;50.330;7.914;2023-02-12T08:45:51;24.75;;;19.23;;
64643;SDS011;51056;50.330;7.914;2023-02-12T08:49:16;23.23;;;18.35;;
64643;SDS011;51056;50.330;7.914;2023-02-12T08:52:23;27.73;;;20.85;;
64643;SDS011;51056;50.330;7.914;2023-02-12T08:55:27;24.90;;;20.25;;
64643;SDS011;51056;50.330;7.914;2023-02-12T08:58:31;26.08;;;20.55;;
64643;SDS011;51056;50.330;7.914;2023-02-12T09:01:38;29.38;;;21.00;;
64643;SDS011;51056;50.330;7.914;2023-02-12T09:04:45;30.25;;;21.27;;
64643;SDS011;51056;50.330;7.914;2023-02-12T09:07:50;27.23;;;20.63;;
64643;SDS011;51056;50.330;7.914;2023-02-12T09:10:55;31.52;;;20.98;;
64643;SDS011;51056;50.330;7.914;2023-02-12T09:14:04;36.28;;;24.48;;
64643;SDS011;51056;50.330;7.914;2023-02-12T09:17:09;38.22;;;25.88;;
64643;SDS011;51056;50.330;7.914;2023-02-12T09:20:12;42.03;;;27.70;;
64643;SDS011;51056;50.330;7.914;2023-02-12T09:26:20;35.42;;;26.52;;
64643;SDS011;51056;50.330;7.914;2023-02-12T09:29:27;37.47;;;26.75;;
64643;SDS011;51056;50.330;7.914;2023-02-12T09:32:31;40.33;;;27.42;;
64643;SDS011;51056;50.330;7.914;2023-02-12T09:35:34;37.00;;;27.02;;
64643;SDS011;51056;50.330;7.914;2023-02-12T09:38:38;39.47;;;27.00;;
64643;SDS011;51056;50.330;7.914;2023-02-12T09:45:46;41.03;;;26.35;;
64643;SDS011;51056;50.330;7.914;2023-02-12T09:51:55;47.40;;;29.20;;
64643;SDS011;51056;50.330;7.914;2023-02-12T09:54:59;62.90;;;34.78;;
64643;SDS011;51056;50.330;7.914;2023-02-12T09:58:06;61.88;;;38.25;;
64643;SDS011;51056;50.330;7.914;2023-02-12T10:01:17;64.28;;;39.15;;
64643;SDS011;51056;50.330;7.914;2023-02-12T10:04:22;74.47;;;42.22;;
64643;SDS011;51056;50.330;7.914;2023-02-12T10:10:46;76.63;;;42.67;;
64643;SDS011;51056;50.330;7.914;2023-02-12T10:27:44;74.07;;;40.85;;
64643;SDS011;51056;50.330;7.914;2023-02-12T10:33:57;68.72;;;40.10;;
64643;SDS011;51056;50.330;7.914;2023-02-12T10:40:30;73.20;;;40.50;;
64643;SDS011;51056;50.330;7.914;2023-02-12T10:43:36;69.75;;;40.25;;
64643;SDS011;51056;50.330;7.914;2023-02-12T10:49:42;65.15;;;38.78;;
64643;SDS011;51056;50.330;7.914;2023-02-12T10:52:49;62.35;;;41.03;;
64643;SDS011;51056;50.330;7.914;2023-02-12T10:56:19;64.57;;;37.83;;
64643;SDS011;51056;50.330;7.914;2023-02-12T10:59:27;63.55;;;38.95;;
64643;SDS011;51056;50.330;7.914;2023-02-12T11:02:32;63.33;;;39.28;;
64643;SDS011;51056;50.330;7.914;2023-02-12T11:05:36;65.13;;;40.45;;
64643;SDS011;51056;50.330;7.914;2023-02-12T11:08:42;60.40;;;35.42;;
64643;SDS011;51056;50.330;7.914;2023-02-12T11:11:46;61.00;;;37.85;;
64643;SDS011;51056;50.330;7.914;2023-02-12T11:14:50;64.28;;;39.08;;
64643;SDS011;51056;50.330;7.914;2023-02-12T11:17:58;61.80;;;38.92;;
64643;SDS011;51056;50.330;7.914;2023-02-12T11:21:06;65.38;;;38.42;;
64643;SDS011;51056;50.330;7.914;2023-02-12T11:24:30;59.08;;;37.28;;
64643;SDS011;51056;50.330;7.914;2023-02-12T11:27:35;58.95;;;36.97;;
64643;SDS011;51056;50.330;7.914;2023-02-12T11:37:18;54.72;;;37.40;;
64643;SDS011;51056;50.330;7.914;2023-02-12T11:43:27;51.75;;;33.97;;
64643;SDS011;51056;50.330;7.914;2023-02-12T11:46:32;51.03;;;33.80;;
64643;SDS011;51056;50.330;7.914;2023-02-12T11:49:37;51.47;;;33.30;;
64643;SDS011;51056;50.330;7.914;2023-02-12T11:52:42;51.63;;;33.42;;
64643;SDS011;51056;50.330;7.914;2023-02-12T11:55:52;53.92;;;35.47;;
64643;SDS011;51056;50.330;7.914;2023-02-12T11:59:32;52.55;;;34.28;;
64643;SDS011;51056;50.330;7.914;2023-02-12T12:02:44;57.55;;;34.50;;
64643;SDS011;51056;50.330;7.914;2023-02-12T12:05:59;50.40;;;33.50;;
64643;SDS011;51056;50.330;7.914;2023-02-12T12:12:22;49.17;;;30.77;;
64643;SDS011;51056;50.330;7.914;2023-02-12T12:15:42;47.78;;;31.00;;
64643;SDS011;51056;50.330;7.914;2023-02-12T12:19:23;47.45;;;33.15;;
64643;SDS011;51056;50.330;7.914;2023-02-12T12:23:05;45.90;;;30.33;;
64643;SDS011;51056;50.330;7.914;2023-02-12T12:26:22;44.13;;;30.45;;
64643;SDS011;51056;50.330;7.914;2023-02-12T12:29:44;43.30;;;30.10;;
64643;SDS011;51056;50.330;7.914;2023-02-12T12:32:55;44.13;;;30.13;;
64643;SDS011;51056;50.330;7.914;2023-02-12T12:39:16;43.22;;;29.73;;
64643;SDS011;51056;50.330;7.914;2023-02-12T12:46:08;39.17;;;26.30;;
64643;SDS011;51056;50.330;7.914;2023-02-12T12:52:59;37.97;;;26.70;;
64643;SDS011;51056;50.330;7.914;2023-02-12T13:00:00;37.97;;;26.40;;
64643;SDS011;51056;50.330;7.914;2023-02-12T13:13:36;44.83;;;29.50;;
64643;SDS011;51056;50.330;7.914;2023-02-12T13:20:48;40.00;;;27.02;;
64643;SDS011;51056;50.330;7.914;2023-02-12T13:23:57;41.60;;;28.77;;
64643;SDS011;51056;50.330;7.914;2023-02-12T13:30:19;41.67;;;28.60;;
64643;SDS011;51056;50.330;7.914;2023-02-12T13:36:31;42.67;;;29.63;;
64643;SDS011;51056;50.330;7.914;2023-02-12T13:39:38;43.20;;;29.98;;
64643;SDS011;51056;50.330;7.914;2023-02-12T13:42:47;41.53;;;29.00;;
64643;SDS011;51056;50.330;7.914;2023-02-12T13:56:01;40.42;;;28.23;;
64643;SDS011;51056;50.330;7.914;2023-02-12T14:08:44;39.55;;;26.98;;
64643;SDS011;51056;50.330;7.914;2023-02-12T14:11:52;40.95;;;27.35;;
64643;SDS011;51056;50.330;7.914;2023-02-12T14:18:37;34.45;;;24.80;;
64643;SDS011;51056;50.330;7.914;2023-02-12T14:24:47;37.50;;;25.23;;
64643;SDS011;51056;50.330;7.914;2023-02-12T14:27:54;38.30;;;24.45;;
64643;SDS011;51056;50.330;7.914;2023-02-12T14:37:37;35.13;;;25.40;;
64643;SDS011;51056;50.330;7.914;2023-02-12T14:43:46;37.67;;;24.65;;
64643;SDS011;51056;50.330;7.914;2023-02-12T14:47:12;34.13;;;23.75;;
64643;SDS011;51056;50.330;7.914;2023-02-12T14:50:38;32.05;;;23.55;;
64643;SDS011;51056;50.330;7.914;2023-02-12T14:53:52;32.35;;;22.73;;
64643;SDS011;51056;50.330;7.914;2023-02-12T14:56:58;34.17;;;23.52;;
64643;SDS011;51056;50.330;7.914;2023-02-12T15:03:30;35.53;;;23.65;;
64643;SDS011;51056;50.330;7.914;2023-02-12T15:06:42;35.22;;;23.05;;
64643;SDS011;51056;50.330;7.914;2023-02-12T15:10:19;31.90;;;23.00;;
64643;SDS011;51056;50.330;7.914;2023-02-12T15:13:26;33.15;;;23.48;;
64643;SDS011;51056;50.330;7.914;2023-02-12T15:16:47;33.53;;;22.55;;
64643;SDS011;51056;50.330;7.914;2023-02-12T15:27:15;29.63;;;22.45;;
64643;SDS011;51056;50.330;7.914;2023-02-12T15:30:22;30.23;;;21.33;;
64643;SDS011;51056;50.330;7.914;2023-02-12T15:33:32;28.45;;;19.52;;
64643;SDS011;51056;50.330;7.914;2023-02-12T15:36:38;28.55;;;20.50;;
64643;SDS011;51056;50.330;7.914;2023-02-12T15:39:44;30.88;;;22.25;;
64643;SDS011;51056;50.330;7.914;2023-02-12T15:42:56;29.08;;;21.30;;
64643;SDS011;51056;50.330;7.914;2023-02-12T15:46:03;30.25;;;21.60;;
64643;SDS011;51056;50.330;7.914;2023-02-12T15:49:18;30.63;;;20.88;;
64643;SDS011;51056;50.330;7.914;2023-02-12T15:52:26;28.80;;;20.60;;
64643;SDS011;51056;50.330;7.914;2023-02-12T15:55:38;28.50;;;20.73;;
64643;SDS011;51056;50.330;7.914;2023-02-12T16:01:58;26.75;;;19.73;;
64643;SDS011;51056;50.330;7.914;2023-02-12T16:05:04;25.27;;;19.40;;
64643;SDS011;51056;50.330;7.914;2023-02-12T16:08:16;22.95;;;17.40;;
64643;SDS011;51056;50.330;7.914;2023-02-12T16:11:22;27.55;;;19.67;;
64643;SDS011;51056;50.330;7.914;2023-02-12T16:14:30;27.05;;;19.50;;
64643;SDS011;51056;50.330;7.914;2023-02-12T16:17:57;27.58;;;18.95;;
64643;SDS011;51056;50.330;7.914;2023-02-12T16:21:04;27.25;;;20.38;;
64643;SDS011;51056;50.330;7.914;2023-02-12T16:24:27;24.17;;;16.52;;
64643;SDS011;51056;50.330;7.914;2023-02-12T16:27:33;22.15;;;16.58;;
64643;SDS011;51056;50.330;7.914;2023-02-12T16:30:38;26.23;;;17.15;;
64643;SDS011;51056;50.330;7.914;2023-02-12T16:33:48;21.75;;;16.00;;
64643;SDS011;51056;50.330;7.914;2023-02-12T16:36:54;20.98;;;14.55;;
64643;SDS011;51056;50.330;7.914;2023-02-12T16:43:04;21.58;;;14.95;;
64643;SDS011;51056;50.330;7.914;2023-02-12T16:46:26;23.23;;;14.68;;
64643;SDS011;51056;50.330;7.914;2023-02-12T16:49:33;21.67;;;15.40;;
64643;SDS011;51056;50.330;7.914;2023-02-12T16:52:54;24.77;;;14.52;;
64643;SDS011;51056;50.330;7.914;2023-02-12T16:56:08;18.58;;;14.00;;
64643;SDS011;51056;50.330;7.914;2023-02-12T16:59:17;23.48;;;16.02;;
64643;SDS011;51056;50.330;7.914;2023-02-12T17:02:21;20.55;;;14.77;;
64643;SDS011;51056;50.330;7.914;2023-02-12T17:05:24;22.52;;;14.65;;
64643;SDS011;51056;50.330;7.914;2023-02-12T17:08:30;19.38;;;13.13;;
64643;SDS011;51056;50.330;7.914;2023-02-12T17:11:36;19.63;;;13.55;;
64643;SDS011;51056;50.330;7.914;2023-02-12T17:14:43;19.13;;;12.88;;
64643;SDS011;51056;50.330;7.914;2023-02-12T17:17:46;18.75;;;13.73;;
64643;SDS011;51056;50.330;7.914;2023-02-12T17:20:54;18.50;;;13.85;;
64643;SDS011;51056;50.330;7.914;2023-02-12T17:23:59;17.38;;;12.45;;
64643;SDS011;51056;50.330;7.914;2023-02-12T17:30:09;17.65;;;12.77;;
64643;SDS011;51056;50.330;7.914;2023-02-12T17:33:16;20.58;;;13.35;;
64643;SDS011;51056;50.330;7.914;2023-02-12T17:36:19;18.73;;;13.75;;
64643;SDS011;51056;50.330;7.914;2023-02-12T17:39:22;17.30;;;12.55;;
64643;SDS011;51056;50.330;7.914;2023-02-12T17:45:29;16.90;;;12.35;;
64643;SDS011;51056;50.330;7.914;2023-02-12T17:51:35;18.75;;;12.85;;
64643;SDS011;51056;50.330;7.914;2023-02-12T17:54:42;18.63;;;12.52;;
64643;SDS011;51056;50.330;7.914;2023-02-12T17:57:51;17.75;;;13.05;;
64643;SDS011;51056;50.330;7.914;2023-02-12T18:00:59;15.73;;;11.57;;
64643;SDS011;51056;50.330;7.914;2023-02-12T18:04:06;16.17;;;11.55;;
64643;SDS011;51056;50.330;7.914;2023-02-12T18:10:13;11.13;;;9.10;;
64643;SDS011;51056;50.330;7.914;2023-02-12T18:13:18;12.27;;;9.60;;
64643;SDS011;51056;50.330;7.914;2023-02-12T18:16:22;16.95;;;10.25;;
64643;SDS011;51056;50.330;7.914;2023-02-12T18:19:28;12.55;;;9.68;;
64643;SDS011;51056;50.330;7.914;2023-02-12T18:22:32;14.43;;;9.27;;
64643;SDS011;51056;50.330;7.914;2023-02-12T18:25:40;13.93;;;11.23;;
64643;SDS011;51056;50.330;7.914;2023-02-12T18:28:45;16.38;;;12.52;;
64643;SDS011;51056;50.330;7.914;2023-02-12T18:31:49;13.43;;;10.85;;
64643;SDS011;51056;50.330;7.914;2023-02-12T18:34:52;13.27;;;9.98;;
64643;SDS011;51056;50.330;7.914;2023-02-12T18:37:56;10.73;;;9.13;;
64643;SDS011;51056;50.330;7.914;2023-02-12T18:40:59;12.32;;;8.65;;
64643;SDS011;51056;50.330;7.914;2023-02-12T18:44:07;11.15;;;8.63;;
64643;SDS011;51056;50.330;7.914;2023-02-12T18:47:11;12.73;;;9.02;;
64643;SDS011;51056;50.330;7.914;2023-02-12T18:56:21;11.30;;;8.60;;
64643;SDS011;51056;50.330;7.914;2023-02-12T18:59:25;10.93;;;9.00;;
64643;SDS011;51056;50.330;7.914;2023-02-12T19:02:28;12.23;;;8.93;;
64643;SDS011;51056;50.330;7.914;2023-02-12T19:05:31;10.52;;;8.43;;
64643;SDS011;51056;50.330;7.914;2023-02-12T19:08:34;10.75;;;7.82;;
64643;SDS011;51056;50.330;7.914;2023-02-12T19:11:38;11.63;;;8.80;;
64643;SDS011;51056;50.330;7.914;2023-02-12T19:17:45;12.35;;;8.77;;
64643;SDS011;51056;50.330;7.914;2023-02-12T19:20:54;11.00;;;8.35;;
64643;SDS011;51056;50.330;7.914;2023-02-12T19:24:00;11.00;;;8.07;;
64643;SDS011;51056;50.330;7.914;2023-02-12T19:27:07;10.38;;;8.07;;
64643;SDS011;51056;50.330;7.914;2023-02-12T19:30:12;9.60;;;8.05;;
64643;SDS011;51056;50.330;7.914;2023-02-12T19:33:17;10.15;;;7.80;;
64643;SDS011;51056;50.330;7.914;2023-02-12T19:36:21;15.07;;;9.98;;
64643;SDS011;51056;50.330;7.914;2023-02-12T19:39:27;11.00;;;8.50;;
64643;SDS011;51056;50.330;7.914;2023-02-12T19:42:33;13.70;;;8.00;;
64643;SDS011;51056;50.330;7.914;2023-02-12T19:45:36;10.98;;;7.75;;
64643;SDS011;51056;50.330;7.914;2023-02-12T19:48:40;11.52;;;8.30;;
64643;SDS011;51056;50.330;7.914;2023-02-12T19:51:44;12.63;;;8.43;;
64643;SDS011;51056;50.330;7.914;2023-02-12T19:54:49;12.50;;;8.73;;
64643;SDS011;51056;50.330;7.914;2023-02-12T20:00:56;10.82;;;8.02;;
64643;SDS011;51056;50.330;7.914;2023-02-12T20:03:59;13.10;;;8.73;;
64643;SDS011;51056;50.330;7.914;2023-02-12T20:07:04;10.25;;;8.32;;
64643;SDS011;51056;50.330;7.914;2023-02-12T20:10:13;12.38;;;8.15;;
64643;SDS011;51056;50.330;7.914;2023-02-12T20:13:28;11.43;;;8.73;;
64643;SDS011;51056;50.330;7.914;2023-02-12T20:16:39;12.50;;;9.10;;
64643;SDS011;51056;50.330;7.914;2023-02-12T20:19:56;12.27;;;9.23;;
64643;SDS011;51056;50.330;7.914;2023-02-12T20:23:00;12.23;;;9.23;;
64643;SDS011;51056;50.330;7.914;2023-02-12T20:26:04;13.82;;;9.57;;
64643;SDS011;51056;50.330;7.914;2023-02-12T20:29:10;14.43;;;10.00;;
64643;SDS011;51056;50.330;7.914;2023-02-12T20:32:15;12.77;;;9.52;;
64643;SDS011;51056;50.330;7.914;2023-02-12T20:35:18;11.98;;;8.95;;
64643;SDS011;51056;50.330;7.914;2023-02-12T20:38:22;14.70;;;10.02;;
64643;SDS011;51056;50.330;7.914;2023-02-12T20:41:26;14.90;;;9.60;;
64643;SDS011;51056;50.330;7.914;2023-02-12T20:44:33;13.57;;;9.55;;
64643;SDS011;51056;50.330;7.914;2023-02-12T20:47:37;12.85;;;9.32;;
64643;SDS011;51056;50.330;7.914;2023-02-12T20:50:47;12.18;;;9.80;;
64643;SDS011;51056;50.330;7.914;2023-02-12T20:53:51;13.93;;;10.40;;
64643;SDS011;51056;50.330;7.914;2023-02-12T21:01:11;14.10;;;9.65;;
64643;SDS011;51056;50.330;7.914;2023-02-12T21:04:18;16.75;;;9.38;;
64643;SDS011;51056;50.330;7.914;2023-02-12T21:07:22;12.63;;;9.35;;
64643;SDS011;51056;50.330;7.914;2023-02-12T21:10:26;14.02;;;10.57;;
64643;SDS011;51056;50.330;7.914;2023-02-12T21:13:29;16.95;;;11.45;;
64643;SDS011;51056;50.330;7.914;2023-02-12T21:16:34;15.10;;;11.27;;
64643;SDS011;51056;50.330;7.914;2023-02-12T21:19:39;13.35;;;9.63;;
64643;SDS011;51056;50.330;7.914;2023-02-12T21:25:46;18.48;;;12.30;;
64643;SDS011;51056;50.330;7.914;2023-02-12T21:28:49;16.60;;;11.57;;
64643;SDS011;51056;50.330;7.914;2023-02-12T21:31:54;19.63;;;10.80;;
64643;SDS011;51056;50.330;7.914;2023-02-12T21:35:00;13.93;;;10.70;;
64643;SDS011;51056;50.330;7.914;2023-02-12T21:46:09;12.50;;;8.80;;
64643;SDS011;51056;50.330;7.914;2023-02-12T21:49:13;13.32;;;9.27;;
64643;SDS011;51056;50.330;7.914;2023-02-12T21:52:27;12.43;;;8.48;;
64643;SDS011;51056;50.330;7.914;2023-02-12T21:55:30;13.73;;;9.60;;
64643;SDS011;51056;50.330;7.914;2023-02-12T21:58:37;11.32;;;7.40;;
64643;SDS011;51056;50.330;7.914;2023-02-12T22:01:44;11.65;;;8.00;;
64643;SDS011;51056;50.330;7.914;2023-02-12T22:04:49;11.60;;;8.35;;
64643;SDS011;51056;50.330;7.914;2023-02-12T22:07:55;11.23;;;8.00;;
64643;SDS011;51056;50.330;7.914;2023-02-12T22:14:06;12.48;;;7.60;;
64643;SDS011;51056;50.330;7.914;2023-02-12T22:17:12;11.50;;;7.90;;
64643;SDS011;51056;50.330;7.914;2023-02-12T22:20:15;16.50;;;7.80;;
64643;SDS011;51056;50.330;7.914;2023-02-12T22:23:18;9.70;;;6.65;;
64643;SDS011;51056;50.330;7.914;2023-02-12T22:26:23;9.75;;;6.65;;
64643;SDS011;51056;50.330;7.914;2023-02-12T22:29:29;9.93;;;7.05;;
64643;SDS011;51056;50.330;7.914;2023-02-12T22:32:33;9.98;;;7.20;;
64643;SDS011;51056;50.330;7.914;2023-02-12T22:38:39;10.05;;;7.57;;
64643;SDS011;51056;50.330;7.914;2023-02-12T22:41:43;9.75;;;6.57;;
64643;SDS011;51056;50.330;7.914;2023-02-12T22:44:47;8.95;;;6.40;;
64643;SDS011;51056;50.330;7.914;2023-02-12T22:47:51;9.65;;;6.20;;
64643;SDS011;51056;50.330;7.914;2023-02-12T22:50:54;12.32;;;6.95;;
64643;SDS011;51056;50.330;7.914;2023-02-12T22:53:59;12.98;;;7.25;;
64643;SDS011;51056;50.330;7.914;2023-02-12T22:57:02;11.30;;;8.15;;